sensor_id;sensor_type;location;lat;lon;timestamp;temperature;humidity
45283;DHT22;31023;44.994;1.796;2022-08-01T00:01:42;23.90;66.00
45283;DHT22;31023;44.994;1.796;2022-08-01T00:04:08;23.80;66.50
45283;DHT22;31023;44.994;1.796;2022-08-01T00:06:33;23.80;66.40
45283;DHT22;31023;44.994;1.796;2022-08-01T00:08:59;23.60;66.70
45283;DHT22;31023;44.994;1.796;2022-08-01T00:11:24;23.50;67.30
45283;DHT22;31023;44.994;1.796;2022-08-01T00:13:50;23.50;67.50
45283;DHT22;31023;44.994;1.796;2022-08-01T00:16:15;23.40;67.30
45283;DHT22;31023;44.994;1.796;2022-08-01T00:18:41;23.60;67.30
45283;DHT22;31023;44.994;1.796;2022-08-01T00:21:07;23.30;67.80
45283;DHT22;31023;44.994;1.796;2022-08-01T00:23:32;23.30;68.10
45283;DHT22;31023;44.994;1.796;2022-08-01T00:25:58;23.20;68.40
45283;DHT22;31023;44.994;1.796;2022-08-01T00:28:23;23.40;67.90
45283;DHT22;31023;44.994;1.796;2022-08-01T00:30:49;23.30;68.00
45283;DHT22;31023;44.994;1.796;2022-08-01T00:33:14;23.20;68.50
45283;DHT22;31023;44.994;1.796;2022-08-01T00:35:40;23.00;68.90
45283;DHT22;31023;44.994;1.796;2022-08-01T00:38:05;23.10;69.10
45283;DHT22;31023;44.994;1.796;2022-08-01T00:40:31;23.10;69.00
45283;DHT22;31023;44.994;1.796;2022-08-01T00:42:56;23.00;69.20
45283;DHT22;31023;44.994;1.796;2022-08-01T00:45:22;22.90;69.50
45283;DHT22;31023;44.994;1.796;2022-08-01T00:47:47;22.90;69.60
45283;DHT22;31023;44.994;1.796;2022-08-01T00:50:13;22.80;69.90
45283;DHT22;31023;44.994;1.796;2022-08-01T00:52:39;22.80;69.80
45283;DHT22;31023;44.994;1.796;2022-08-01T00:55:05;22.80;70.10
45283;DHT22;31023;44.994;1.796;2022-08-01T00:57:30;22.80;70.10
45283;DHT22;31023;44.994;1.796;2022-08-01T00:59:56;22.70;70.50
45283;DHT22;31023;44.994;1.796;2022-08-01T01:02:22;22.60;70.70
45283;DHT22;31023;44.994;1.796;2022-08-01T01:04:48;22.60;71.30
45283;DHT22;31023;44.994;1.796;2022-08-01T01:07:17;22.50;71.70
45283;DHT22;31023;44.994;1.796;2022-08-01T01:14:48;22.40;72.20
45283;DHT22;31023;44.994;1.796;2022-08-01T01:17:17;22.40;72.40
45283;DHT22;31023;44.994;1.796;2022-08-01T01:19:45;22.30;72.40
45283;DHT22;31023;44.994;1.796;2022-08-01T01:22:24;22.30;72.50
45283;DHT22;31023;44.994;1.796;2022-08-01T01:25:02;22.30;72.60
45283;DHT22;31023;44.994;1.796;2022-08-01T01:30:01;22.20;72.80
45283;DHT22;31023;44.994;1.796;2022-08-01T01:34:59;22.10;73.10
45283;DHT22;31023;44.994;1.796;2022-08-01T01:37:25;22.00;73.70
45283;DHT22;31023;44.994;1.796;2022-08-01T01:39:52;22.10;73.60
45283;DHT22;31023;44.994;1.796;2022-08-01T01:42:18;22.00;73.80
45283;DHT22;31023;44.994;1.796;2022-08-01T01:44:45;22.00;74.00
45283;DHT22;31023;44.994;1.796;2022-08-01T01:47:13;22.00;74.40
45283;DHT22;31023;44.994;1.796;2022-08-01T01:49:40;21.90;74.70
45283;DHT22;31023;44.994;1.796;2022-08-01T01:52:06;21.80;75.00
45283;DHT22;31023;44.994;1.796;2022-08-01T01:54:35;21.80;75.30
45283;DHT22;31023;44.994;1.796;2022-08-01T01:57:02;21.70;75.70
45283;DHT22;31023;44.994;1.796;2022-08-01T01:59:29;21.70;75.90
45283;DHT22;31023;44.994;1.796;2022-08-01T02:01:56;21.70;76.00
45283;DHT22;31023;44.994;1.796;2022-08-01T02:04:23;21.70;76.30
45283;DHT22;31023;44.994;1.796;2022-08-01T02:06:50;21.50;76.50
45283;DHT22;31023;44.994;1.796;2022-08-01T02:09:17;21.70;76.50
45283;DHT22;31023;44.994;1.796;2022-08-01T02:11:44;21.50;76.80
45283;DHT22;31023;44.994;1.796;2022-08-01T02:14:09;21.60;76.90
45283;DHT22;31023;44.994;1.796;2022-08-01T02:16:36;21.50;77.00
45283;DHT22;31023;44.994;1.796;2022-08-01T02:19:04;21.50;77.20
45283;DHT22;31023;44.994;1.796;2022-08-01T02:21:30;21.40;77.50
45283;DHT22;31023;44.994;1.796;2022-08-01T02:24:06;21.40;77.90
45283;DHT22;31023;44.994;1.796;2022-08-01T02:26:33;21.30;78.40
45283;DHT22;31023;44.994;1.796;2022-08-01T02:29:01;21.30;78.30
45283;DHT22;31023;44.994;1.796;2022-08-01T02:31:27;21.20;78.80
45283;DHT22;31023;44.994;1.796;2022-08-01T02:33:59;21.20;78.80
45283;DHT22;31023;44.994;1.796;2022-08-01T02:36:27;21.20;79.00
45283;DHT22;31023;44.994;1.796;2022-08-01T02:38:54;21.20;79.10
45283;DHT22;31023;44.994;1.796;2022-08-01T02:41:21;21.20;79.00
45283;DHT22;31023;44.994;1.796;2022-08-01T02:43:48;21.30;79.20
45283;DHT22;31023;44.994;1.796;2022-08-01T02:46:20;21.20;79.60
45283;DHT22;31023;44.994;1.796;2022-08-01T02:48:47;21.10;79.90
45283;DHT22;31023;44.994;1.796;2022-08-01T02:51:13;21.10;80.50
45283;DHT22;31023;44.994;1.796;2022-08-01T02:53:39;21.00;80.60
45283;DHT22;31023;44.994;1.796;2022-08-01T02:56:07;21.00;81.10
45283;DHT22;31023;44.994;1.796;2022-08-01T02:58:33;20.90;81.80
45283;DHT22;31023;44.994;1.796;2022-08-01T03:00:59;20.90;81.70
45283;DHT22;31023;44.994;1.796;2022-08-01T03:03:25;20.90;81.70
45283;DHT22;31023;44.994;1.796;2022-08-01T03:05:51;20.90;81.90
45283;DHT22;31023;44.994;1.796;2022-08-01T03:08:17;20.90;81.90
45283;DHT22;31023;44.994;1.796;2022-08-01T03:10:44;20.80;82.30
45283;DHT22;31023;44.994;1.796;2022-08-01T03:13:11;20.90;82.30
45283;DHT22;31023;44.994;1.796;2022-08-01T03:15:38;20.80;82.70
45283;DHT22;31023;44.994;1.796;2022-08-01T03:18:05;20.80;82.90
45283;DHT22;31023;44.994;1.796;2022-08-01T03:20:34;20.80;83.10
45283;DHT22;31023;44.994;1.796;2022-08-01T03:23:01;20.70;82.80
45283;DHT22;31023;44.994;1.796;2022-08-01T03:25:28;20.80;82.40
45283;DHT22;31023;44.994;1.796;2022-08-01T03:27:55;20.80;82.80
45283;DHT22;31023;44.994;1.796;2022-08-01T03:30:22;20.80;83.40
45283;DHT22;31023;44.994;1.796;2022-08-01T03:32:48;20.70;83.60
45283;DHT22;31023;44.994;1.796;2022-08-01T03:35:14;20.70;84.00
45283;DHT22;31023;44.994;1.796;2022-08-01T03:37:44;20.60;84.30
45283;DHT22;31023;44.994;1.796;2022-08-01T03:40:15;20.60;84.40
45283;DHT22;31023;44.994;1.796;2022-08-01T03:42:46;20.60;84.60
45283;DHT22;31023;44.994;1.796;2022-08-01T03:45:18;20.60;84.50
45283;DHT22;31023;44.994;1.796;2022-08-01T03:47:44;20.60;84.70
45283;DHT22;31023;44.994;1.796;2022-08-01T03:50:12;20.60;84.70
45283;DHT22;31023;44.994;1.796;2022-08-01T03:52:39;20.50;85.00
45283;DHT22;31023;44.994;1.796;2022-08-01T03:55:07;20.50;86.00
45283;DHT22;31023;44.994;1.796;2022-08-01T03:57:33;20.40;85.70
45283;DHT22;31023;44.994;1.796;2022-08-01T03:59:59;20.40;86.30
45283;DHT22;31023;44.994;1.796;2022-08-01T04:02:25;20.20;87.20
45283;DHT22;31023;44.994;1.796;2022-08-01T04:04:51;20.20;87.90
45283;DHT22;31023;44.994;1.796;2022-08-01T04:07:27;20.20;88.40
45283;DHT22;31023;44.994;1.796;2022-08-01T04:09:53;20.10;88.80
45283;DHT22;31023;44.994;1.796;2022-08-01T04:12:19;20.10;89.50
45283;DHT22;31023;44.994;1.796;2022-08-01T04:14:45;20.40;90.00
45283;DHT22;31023;44.994;1.796;2022-08-01T04:17:10;20.30;90.20
45283;DHT22;31023;44.994;1.796;2022-08-01T04:19:36;20.10;91.30
45283;DHT22;31023;44.994;1.796;2022-08-01T04:22:02;19.70;92.00
45283;DHT22;31023;44.994;1.796;2022-08-01T04:24:28;19.70;92.40
45283;DHT22;31023;44.994;1.796;2022-08-01T04:26:55;19.70;92.70
45283;DHT22;31023;44.994;1.796;2022-08-01T04:29:21;19.80;92.70
45283;DHT22;31023;44.994;1.796;2022-08-01T04:31:48;19.80;92.90
45283;DHT22;31023;44.994;1.796;2022-08-01T04:34:15;19.70;93.30
45283;DHT22;31023;44.994;1.796;2022-08-01T04:36:41;19.70;93.70
45283;DHT22;31023;44.994;1.796;2022-08-01T04:39:08;19.60;94.00
45283;DHT22;31023;44.994;1.796;2022-08-01T04:41:34;19.70;94.00
45283;DHT22;31023;44.994;1.796;2022-08-01T04:44:01;19.60;94.40
45283;DHT22;31023;44.994;1.796;2022-08-01T04:46:28;19.60;94.50
45283;DHT22;31023;44.994;1.796;2022-08-01T04:48:54;19.60;94.60
45283;DHT22;31023;44.994;1.796;2022-08-01T04:51:22;19.60;94.80
45283;DHT22;31023;44.994;1.796;2022-08-01T04:53:48;19.80;94.30
45283;DHT22;31023;44.994;1.796;2022-08-01T04:56:16;19.80;94.20
45283;DHT22;31023;44.994;1.796;2022-08-01T04:58:42;19.60;95.50
45283;DHT22;31023;44.994;1.796;2022-08-01T05:01:07;19.40;96.40
45283;DHT22;31023;44.994;1.796;2022-08-01T05:03:33;19.80;95.80
45283;DHT22;31023;44.994;1.796;2022-08-01T05:05:59;20.10;94.70
45283;DHT22;31023;44.994;1.796;2022-08-01T05:08:24;20.60;92.90
45283;DHT22;31023;44.994;1.796;2022-08-01T05:10:50;20.80;92.20
45283;DHT22;31023;44.994;1.796;2022-08-01T05:13:15;21.30;90.70
45283;DHT22;31023;44.994;1.796;2022-08-01T05:15:41;22.10;87.10
45283;DHT22;31023;44.994;1.796;2022-08-01T05:18:06;22.50;85.30
45283;DHT22;31023;44.994;1.796;2022-08-01T05:20:32;22.70;83.80
45283;DHT22;31023;44.994;1.796;2022-08-01T05:22:57;23.00;82.30
45283;DHT22;31023;44.994;1.796;2022-08-01T05:25:23;23.30;81.40
45283;DHT22;31023;44.994;1.796;2022-08-01T05:27:48;23.40;81.50
45283;DHT22;31023;44.994;1.796;2022-08-01T05:30:14;23.80;79.40
45283;DHT22;31023;44.994;1.796;2022-08-01T05:32:39;24.00;78.20
45283;DHT22;31023;44.994;1.796;2022-08-01T05:35:06;24.50;76.10
45283;DHT22;31023;44.994;1.796;2022-08-01T05:37:32;24.70;75.00
45283;DHT22;31023;44.994;1.796;2022-08-01T05:39:57;24.80;74.20
45283;DHT22;31023;44.994;1.796;2022-08-01T05:42:23;25.10;73.70
45283;DHT22;31023;44.994;1.796;2022-08-01T05:44:48;25.10;73.10
45283;DHT22;31023;44.994;1.796;2022-08-01T05:47:16;25.70;71.90
45283;DHT22;31023;44.994;1.796;2022-08-01T05:49:41;25.50;71.90
45283;DHT22;31023;44.994;1.796;2022-08-01T05:52:07;25.80;70.50
45283;DHT22;31023;44.994;1.796;2022-08-01T05:54:33;26.00;69.70
45283;DHT22;31023;44.994;1.796;2022-08-01T05:56:58;26.20;68.80
45283;DHT22;31023;44.994;1.796;2022-08-01T05:59:27;26.50;68.60
45283;DHT22;31023;44.994;1.796;2022-08-01T06:01:53;26.90;67.50
45283;DHT22;31023;44.994;1.796;2022-08-01T06:04:19;27.20;66.90
45283;DHT22;31023;44.994;1.796;2022-08-01T06:06:44;27.30;66.30
45283;DHT22;31023;44.994;1.796;2022-08-01T06:09:10;27.50;65.20
45283;DHT22;31023;44.994;1.796;2022-08-01T06:11:35;27.60;65.80
45283;DHT22;31023;44.994;1.796;2022-08-01T06:14:01;27.70;64.80
45283;DHT22;31023;44.994;1.796;2022-08-01T06:16:26;27.90;64.80
45283;DHT22;31023;44.994;1.796;2022-08-01T06:18:52;28.30;63.50
45283;DHT22;31023;44.994;1.796;2022-08-01T06:21:17;28.10;63.10
45283;DHT22;31023;44.994;1.796;2022-08-01T06:23:43;28.70;62.60
45283;DHT22;31023;44.994;1.796;2022-08-01T06:26:08;28.40;62.90
45283;DHT22;31023;44.994;1.796;2022-08-01T06:28:35;28.80;62.20
45283;DHT22;31023;44.994;1.796;2022-08-01T06:31:00;28.50;62.50
45283;DHT22;31023;44.994;1.796;2022-08-01T06:33:26;28.30;62.40
45283;DHT22;31023;44.994;1.796;2022-08-01T06:35:52;28.60;62.00
45283;DHT22;31023;44.994;1.796;2022-08-01T06:38:17;29.10;60.60
45283;DHT22;31023;44.994;1.796;2022-08-01T06:40:43;28.80;61.20
45283;DHT22;31023;44.994;1.796;2022-08-01T06:43:08;29.60;60.00
45283;DHT22;31023;44.994;1.796;2022-08-01T06:45:36;29.60;59.30
45283;DHT22;31023;44.994;1.796;2022-08-01T06:48:02;29.50;59.60
45283;DHT22;31023;44.994;1.796;2022-08-01T06:50:28;30.00;58.30
45283;DHT22;31023;44.994;1.796;2022-08-01T06:52:53;30.50;58.00
45283;DHT22;31023;44.994;1.796;2022-08-01T06:55:19;31.00;57.10
45283;DHT22;31023;44.994;1.796;2022-08-01T06:57:51;31.70;56.00
45283;DHT22;31023;44.994;1.796;2022-08-01T07:00:17;31.40;55.70
45283;DHT22;31023;44.994;1.796;2022-08-01T07:02:44;31.10;56.30
45283;DHT22;31023;44.994;1.796;2022-08-01T07:05:10;32.20;55.30
45283;DHT22;31023;44.994;1.796;2022-08-01T07:07:36;31.90;55.60
45283;DHT22;31023;44.994;1.796;2022-08-01T07:10:02;32.20;54.50
45283;DHT22;31023;44.994;1.796;2022-08-01T07:12:28;32.70;53.50
45283;DHT22;31023;44.994;1.796;2022-08-01T07:14:53;32.50;55.00
45283;DHT22;31023;44.994;1.796;2022-08-01T07:17:19;33.40;52.80
45283;DHT22;31023;44.994;1.796;2022-08-01T07:19:46;33.40;52.30
45283;DHT22;31023;44.994;1.796;2022-08-01T07:22:11;33.10;52.80
45283;DHT22;31023;44.994;1.796;2022-08-01T07:24:37;33.50;52.60
45283;DHT22;31023;44.994;1.796;2022-08-01T07:27:02;33.70;51.80
45283;DHT22;31023;44.994;1.796;2022-08-01T07:29:28;34.10;51.00
45283;DHT22;31023;44.994;1.796;2022-08-01T07:31:55;34.00;50.80
45283;DHT22;31023;44.994;1.796;2022-08-01T07:34:21;34.30;51.70
45283;DHT22;31023;44.994;1.796;2022-08-01T07:36:46;34.00;50.10
45283;DHT22;31023;44.994;1.796;2022-08-01T07:39:12;33.80;50.90
45283;DHT22;31023;44.994;1.796;2022-08-01T07:41:37;33.80;49.70
45283;DHT22;31023;44.994;1.796;2022-08-01T07:44:03;34.00;50.00
45283;DHT22;31023;44.994;1.796;2022-08-01T07:46:29;34.60;51.00
45283;DHT22;31023;44.994;1.796;2022-08-01T07:48:56;35.40;48.20
45283;DHT22;31023;44.994;1.796;2022-08-01T07:51:21;35.10;48.10
45283;DHT22;31023;44.994;1.796;2022-08-01T07:53:47;35.40;48.70
45283;DHT22;31023;44.994;1.796;2022-08-01T07:56:12;36.30;47.90
45283;DHT22;31023;44.994;1.796;2022-08-01T07:58:38;35.80;48.40
45283;DHT22;31023;44.994;1.796;2022-08-01T08:01:03;36.40;48.20
45283;DHT22;31023;44.994;1.796;2022-08-01T08:03:29;36.30;47.00
45283;DHT22;31023;44.994;1.796;2022-08-01T08:05:55;36.30;48.50
45283;DHT22;31023;44.994;1.796;2022-08-01T08:08:21;36.50;46.50
45283;DHT22;31023;44.994;1.796;2022-08-01T08:10:46;36.90;46.10
45283;DHT22;31023;44.994;1.796;2022-08-01T08:13:12;36.40;45.40
45283;DHT22;31023;44.994;1.796;2022-08-01T08:15:38;37.10;44.80
45283;DHT22;31023;44.994;1.796;2022-08-01T08:18:04;37.70;46.60
45283;DHT22;31023;44.994;1.796;2022-08-01T08:20:29;37.70;45.60
45283;DHT22;31023;44.994;1.796;2022-08-01T08:22:55;37.80;44.70
45283;DHT22;31023;44.994;1.796;2022-08-01T08:25:22;38.20;45.30
45283;DHT22;31023;44.994;1.796;2022-08-01T08:27:47;37.80;44.40
45283;DHT22;31023;44.994;1.796;2022-08-01T08:30:13;38.80;44.50
45283;DHT22;31023;44.994;1.796;2022-08-01T08:32:40;38.30;43.60
45283;DHT22;31023;44.994;1.796;2022-08-01T08:35:06;38.80;43.50
45283;DHT22;31023;44.994;1.796;2022-08-01T08:37:32;39.20;42.90
45283;DHT22;31023;44.994;1.796;2022-08-01T08:39:57;39.80;43.10
45283;DHT22;31023;44.994;1.796;2022-08-01T08:42:23;40.00;43.20
45283;DHT22;31023;44.994;1.796;2022-08-01T08:44:49;40.00;42.90
45283;DHT22;31023;44.994;1.796;2022-08-01T08:47:14;40.80;42.80
45283;DHT22;31023;44.994;1.796;2022-08-01T08:49:41;40.80;40.40
45283;DHT22;31023;44.994;1.796;2022-08-01T08:52:07;41.60;41.40
45283;DHT22;31023;44.994;1.796;2022-08-01T08:54:35;41.20;40.80
45283;DHT22;31023;44.994;1.796;2022-08-01T08:57:02;41.50;41.40
45283;DHT22;31023;44.994;1.796;2022-08-01T08:59:28;42.30;41.50
45283;DHT22;31023;44.994;1.796;2022-08-01T09:01:53;41.90;41.20
45283;DHT22;31023;44.994;1.796;2022-08-01T09:04:22;41.60;41.20
45283;DHT22;31023;44.994;1.796;2022-08-01T09:06:48;41.90;40.80
45283;DHT22;31023;44.994;1.796;2022-08-01T09:09:14;41.00;40.50
45283;DHT22;31023;44.994;1.796;2022-08-01T09:11:39;41.00;40.90
45283;DHT22;31023;44.994;1.796;2022-08-01T09:14:07;41.80;41.40
45283;DHT22;31023;44.994;1.796;2022-08-01T09:16:33;42.40;40.90
45283;DHT22;31023;44.994;1.796;2022-08-01T09:19:18;42.60;39.70
45283;DHT22;31023;44.994;1.796;2022-08-01T09:21:57;42.50;39.40
45283;DHT22;31023;44.994;1.796;2022-08-01T09:24:24;43.30;40.30
45283;DHT22;31023;44.994;1.796;2022-08-01T09:26:49;43.70;40.30
45283;DHT22;31023;44.994;1.796;2022-08-01T09:29:20;42.40;39.00
45283;DHT22;31023;44.994;1.796;2022-08-01T09:31:46;42.40;40.50
45283;DHT22;31023;44.994;1.796;2022-08-01T09:34:12;43.30;39.90
45283;DHT22;31023;44.994;1.796;2022-08-01T09:36:44;43.30;38.40
45283;DHT22;31023;44.994;1.796;2022-08-01T09:39:13;42.60;38.40
45283;DHT22;31023;44.994;1.796;2022-08-01T09:41:39;42.80;39.60
45283;DHT22;31023;44.994;1.796;2022-08-01T09:44:05;43.70;37.60
45283;DHT22;31023;44.994;1.796;2022-08-01T09:46:30;42.20;37.90
45283;DHT22;31023;44.994;1.796;2022-08-01T09:51:32;43.70;38.00
45283;DHT22;31023;44.994;1.796;2022-08-01T09:53:58;43.80;37.40
45283;DHT22;31023;44.994;1.796;2022-08-01T09:56:24;43.90;38.50
45283;DHT22;31023;44.994;1.796;2022-08-01T10:01:15;43.50;38.20
45283;DHT22;31023;44.994;1.796;2022-08-01T10:03:41;43.50;37.80
45283;DHT22;31023;44.994;1.796;2022-08-01T10:06:22;43.70;37.60
45283;DHT22;31023;44.994;1.796;2022-08-01T10:08:47;43.30;38.30
45283;DHT22;31023;44.994;1.796;2022-08-01T10:11:13;42.50;37.10
45283;DHT22;31023;44.994;1.796;2022-08-01T10:13:39;42.90;37.90
45283;DHT22;31023;44.994;1.796;2022-08-01T10:16:05;43.90;38.30
45283;DHT22;31023;44.994;1.796;2022-08-01T10:18:31;43.30;38.10
45283;DHT22;31023;44.994;1.796;2022-08-01T10:20:57;42.40;37.50
45283;DHT22;31023;44.994;1.796;2022-08-01T10:23:27;42.60;39.60
45283;DHT22;31023;44.994;1.796;2022-08-01T10:25:55;42.90;38.90
45283;DHT22;31023;44.994;1.796;2022-08-01T10:28:21;43.20;39.00
45283;DHT22;31023;44.994;1.796;2022-08-01T10:30:46;42.80;38.20
45283;DHT22;31023;44.994;1.796;2022-08-01T10:33:12;41.40;38.30
45283;DHT22;31023;44.994;1.796;2022-08-01T10:35:38;39.60;39.60
45283;DHT22;31023;44.994;1.796;2022-08-01T10:38:05;39.10;40.10
45283;DHT22;31023;44.994;1.796;2022-08-01T10:40:30;38.50;41.00
45283;DHT22;31023;44.994;1.796;2022-08-01T10:42:56;37.40;41.40
45283;DHT22;31023;44.994;1.796;2022-08-01T10:45:22;36.40;42.50
45283;DHT22;31023;44.994;1.796;2022-08-01T10:47:49;35.60;42.70
45283;DHT22;31023;44.994;1.796;2022-08-01T10:50:21;35.30;43.40
45283;DHT22;31023;44.994;1.796;2022-08-01T10:53:07;34.90;42.50
45283;DHT22;31023;44.994;1.796;2022-08-01T10:58:11;34.40;42.90
45283;DHT22;31023;44.994;1.796;2022-08-01T11:00:36;34.50;42.20
45283;DHT22;31023;44.994;1.796;2022-08-01T11:03:03;34.50;42.60
45283;DHT22;31023;44.994;1.796;2022-08-01T11:05:30;34.90;43.00
45283;DHT22;31023;44.994;1.796;2022-08-01T11:07:57;34.80;42.50
45283;DHT22;31023;44.994;1.796;2022-08-01T11:10:44;35.10;43.70
45283;DHT22;31023;44.994;1.796;2022-08-01T11:13:09;35.30;42.90
45283;DHT22;31023;44.994;1.796;2022-08-01T11:15:39;35.00;43.50
45283;DHT22;31023;44.994;1.796;2022-08-01T11:20:59;34.80;42.80
45283;DHT22;31023;44.994;1.796;2022-08-01T11:23:26;34.80;42.80
45283;DHT22;31023;44.994;1.796;2022-08-01T11:28:19;34.20;40.60
45283;DHT22;31023;44.994;1.796;2022-08-01T11:33:11;34.00;42.80
45283;DHT22;31023;44.994;1.796;2022-08-01T11:35:37;34.00;42.60
45283;DHT22;31023;44.994;1.796;2022-08-01T11:38:23;33.80;41.40
45283;DHT22;31023;44.994;1.796;2022-08-01T11:43:33;33.30;41.00
45283;DHT22;31023;44.994;1.796;2022-08-01T11:45:59;33.40;42.00
45283;DHT22;31023;44.994;1.796;2022-08-01T11:48:26;33.50;42.40
45283;DHT22;31023;44.994;1.796;2022-08-01T11:50:52;33.50;42.00
45283;DHT22;31023;44.994;1.796;2022-08-01T11:53:18;33.80;43.10
45283;DHT22;31023;44.994;1.796;2022-08-01T11:55:47;33.40;40.70
45283;DHT22;31023;44.994;1.796;2022-08-01T11:58:14;33.20;41.20
45283;DHT22;31023;44.994;1.796;2022-08-01T12:00:39;33.10;42.50
45283;DHT22;31023;44.994;1.796;2022-08-01T12:03:06;33.40;43.90
45283;DHT22;31023;44.994;1.796;2022-08-01T12:05:32;33.60;43.80
45283;DHT22;31023;44.994;1.796;2022-08-01T12:08:00;33.20;42.90
45283;DHT22;31023;44.994;1.796;2022-08-01T12:10:27;33.20;44.50
45283;DHT22;31023;44.994;1.796;2022-08-01T12:12:59;32.90;43.20
45283;DHT22;31023;44.994;1.796;2022-08-01T12:15:28;33.10;44.40
45283;DHT22;31023;44.994;1.796;2022-08-01T12:17:58;33.20;44.20
45283;DHT22;31023;44.994;1.796;2022-08-01T12:20:24;33.00;43.30
45283;DHT22;31023;44.994;1.796;2022-08-01T12:22:56;33.00;44.00
45283;DHT22;31023;44.994;1.796;2022-08-01T12:25:22;33.00;44.50
45283;DHT22;31023;44.994;1.796;2022-08-01T12:27:48;33.10;44.90
45283;DHT22;31023;44.994;1.796;2022-08-01T12:30:15;33.30;44.70
45283;DHT22;31023;44.994;1.796;2022-08-01T12:32:42;33.20;44.50
45283;DHT22;31023;44.994;1.796;2022-08-01T12:35:15;32.90;44.00
45283;DHT22;31023;44.994;1.796;2022-08-01T12:37:45;32.90;44.50
45283;DHT22;31023;44.994;1.796;2022-08-01T12:40:15;32.80;44.30
45283;DHT22;31023;44.994;1.796;2022-08-01T12:42:41;32.60;44.80
45283;DHT22;31023;44.994;1.796;2022-08-01T12:45:08;32.80;46.00
45283;DHT22;31023;44.994;1.796;2022-08-01T12:47:35;32.80;46.10
45283;DHT22;31023;44.994;1.796;2022-08-01T12:50:01;33.00;47.30
45283;DHT22;31023;44.994;1.796;2022-08-01T12:52:27;33.30;45.90
45283;DHT22;31023;44.994;1.796;2022-08-01T12:57:30;32.70;45.00
45283;DHT22;31023;44.994;1.796;2022-08-01T13:00:13;32.80;44.50
45283;DHT22;31023;44.994;1.796;2022-08-01T13:02:39;32.80;45.60
45283;DHT22;31023;44.994;1.796;2022-08-01T13:05:05;32.80;45.40
45283;DHT22;31023;44.994;1.796;2022-08-01T13:07:35;32.90;44.30
45283;DHT22;31023;44.994;1.796;2022-08-01T13:10:00;32.90;43.80
45283;DHT22;31023;44.994;1.796;2022-08-01T13:12:26;32.90;44.50
45283;DHT22;31023;44.994;1.796;2022-08-01T13:14:52;33.00;44.30
45283;DHT22;31023;44.994;1.796;2022-08-01T13:17:33;33.00;45.00
45283;DHT22;31023;44.994;1.796;2022-08-01T13:20:00;33.00;44.70
45283;DHT22;31023;44.994;1.796;2022-08-01T13:22:32;32.90;44.70
45283;DHT22;31023;44.994;1.796;2022-08-01T13:25:11;32.90;43.80
45283;DHT22;31023;44.994;1.796;2022-08-01T13:27:37;33.20;44.40
45283;DHT22;31023;44.994;1.796;2022-08-01T13:32:40;32.80;44.70
45283;DHT22;31023;44.994;1.796;2022-08-01T13:35:07;33.20;45.20
45283;DHT22;31023;44.994;1.796;2022-08-01T13:37:33;33.00;45.30
45283;DHT22;31023;44.994;1.796;2022-08-01T13:39:59;32.80;44.00
45283;DHT22;31023;44.994;1.796;2022-08-01T13:42:24;32.50;44.50
45283;DHT22;31023;44.994;1.796;2022-08-01T13:44:50;32.40;43.60
45283;DHT22;31023;44.994;1.796;2022-08-01T13:47:15;32.30;42.80
45283;DHT22;31023;44.994;1.796;2022-08-01T13:49:41;32.20;43.80
45283;DHT22;31023;44.994;1.796;2022-08-01T13:52:07;32.50;43.20
45283;DHT22;31023;44.994;1.796;2022-08-01T13:54:32;32.00;43.30
45283;DHT22;31023;44.994;1.796;2022-08-01T13:56:58;32.10;43.40
45283;DHT22;31023;44.994;1.796;2022-08-01T13:59:24;32.10;43.60
45283;DHT22;31023;44.994;1.796;2022-08-01T14:01:49;32.00;44.80
45283;DHT22;31023;44.994;1.796;2022-08-01T14:04:15;32.20;46.60
45283;DHT22;31023;44.994;1.796;2022-08-01T14:06:40;32.20;46.10
45283;DHT22;31023;44.994;1.796;2022-08-01T14:09:06;32.50;46.70
45283;DHT22;31023;44.994;1.796;2022-08-01T14:11:32;32.80;46.10
45283;DHT22;31023;44.994;1.796;2022-08-01T14:13:58;32.80;45.90
45283;DHT22;31023;44.994;1.796;2022-08-01T14:16:23;32.70;45.10
45283;DHT22;31023;44.994;1.796;2022-08-01T14:18:49;32.50;45.40
45283;DHT22;31023;44.994;1.796;2022-08-01T14:21:15;32.40;46.50
45283;DHT22;31023;44.994;1.796;2022-08-01T14:23:41;32.40;45.20
45283;DHT22;31023;44.994;1.796;2022-08-01T14:26:08;32.40;45.30
45283;DHT22;31023;44.994;1.796;2022-08-01T14:28:34;32.30;45.70
45283;DHT22;31023;44.994;1.796;2022-08-01T14:30:59;32.40;45.20
45283;DHT22;31023;44.994;1.796;2022-08-01T14:33:25;32.50;45.50
45283;DHT22;31023;44.994;1.796;2022-08-01T14:35:51;32.40;44.50
45283;DHT22;31023;44.994;1.796;2022-08-01T14:38:17;32.60;43.90
45283;DHT22;31023;44.994;1.796;2022-08-01T14:40:42;32.80;44.20
45283;DHT22;31023;44.994;1.796;2022-08-01T14:43:08;33.10;42.20
45283;DHT22;31023;44.994;1.796;2022-08-01T14:45:34;33.20;42.30
45283;DHT22;31023;44.994;1.796;2022-08-01T14:48:00;33.10;43.10
45283;DHT22;31023;44.994;1.796;2022-08-01T14:50:26;33.20;42.00
45283;DHT22;31023;44.994;1.796;2022-08-01T14:52:54;33.20;43.00
45283;DHT22;31023;44.994;1.796;2022-08-01T14:55:19;33.30;43.10
45283;DHT22;31023;44.994;1.796;2022-08-01T14:57:48;33.20;42.60
45283;DHT22;31023;44.994;1.796;2022-08-01T15:00:14;33.00;42.30
45283;DHT22;31023;44.994;1.796;2022-08-01T15:02:40;32.80;42.90
45283;DHT22;31023;44.994;1.796;2022-08-01T15:05:06;32.90;42.80
45283;DHT22;31023;44.994;1.796;2022-08-01T15:07:32;32.70;44.20
45283;DHT22;31023;44.994;1.796;2022-08-01T15:09:57;32.30;43.70
45283;DHT22;31023;44.994;1.796;2022-08-01T15:12:23;32.20;43.10
45283;DHT22;31023;44.994;1.796;2022-08-01T15:14:48;32.10;44.10
45283;DHT22;31023;44.994;1.796;2022-08-01T15:17:15;32.20;43.20
45283;DHT22;31023;44.994;1.796;2022-08-01T15:19:41;32.30;43.70
45283;DHT22;31023;44.994;1.796;2022-08-01T15:22:06;32.50;43.80
45283;DHT22;31023;44.994;1.796;2022-08-01T15:24:32;32.40;43.30
45283;DHT22;31023;44.994;1.796;2022-08-01T15:26:57;32.30;44.00
45283;DHT22;31023;44.994;1.796;2022-08-01T15:29:23;32.40;44.70
45283;DHT22;31023;44.994;1.796;2022-08-01T15:31:49;32.20;44.90
45283;DHT22;31023;44.994;1.796;2022-08-01T15:34:14;32.30;45.10
45283;DHT22;31023;44.994;1.796;2022-08-01T15:36:40;32.30;45.50
45283;DHT22;31023;44.994;1.796;2022-08-01T15:39:08;32.30;44.50
45283;DHT22;31023;44.994;1.796;2022-08-01T15:41:33;32.30;44.20
45283;DHT22;31023;44.994;1.796;2022-08-01T15:43:59;32.10;43.90
45283;DHT22;31023;44.994;1.796;2022-08-01T15:46:24;32.20;43.20
45283;DHT22;31023;44.994;1.796;2022-08-01T15:48:50;32.10;42.60
45283;DHT22;31023;44.994;1.796;2022-08-01T15:51:16;32.10;42.40
45283;DHT22;31023;44.994;1.796;2022-08-01T15:53:41;32.20;42.50
45283;DHT22;31023;44.994;1.796;2022-08-01T15:56:07;32.30;42.10
45283;DHT22;31023;44.994;1.796;2022-08-01T15:58:33;32.20;42.70
45283;DHT22;31023;44.994;1.796;2022-08-01T16:00:59;32.20;42.40